Latest Coastal Weather Observations for Gabo Island

IDV60701

Issued at 6:02 pm EST Wednesday 31 August 2016 (issued every 10 minutes, with the page automatically refreshed every 10 minutes)

About coastal observations | Map of coastal stations | Coastal observations for VIC | Marine services | Other Formats
Station Details ID: 084016 Name: GABO ISLAND LIGHTHOUSE Lat: -37.57 Lon: 149.92 Height: 15.2 m
Data from the previous 72 hours. | See also: Recent months at Gabo Island
Date/Time
EST
Temp
°C
Wind Pressure Rain since
9am
mm
Weather Cloud Vis
km
Sea
Height
m
Swell
Dir  Spd
kts
Gust
kts
hPa Trend Height
m
Period
s
Dir
31/06:00pm 13.8 W 9 11 1013.1 - 2.8 Recent precip. - - - - - -
31/05:30pm 14.3 SW 9 11 1012.3 - 2.8 - - - - - - -
31/05:00pm 14.3 NW 7 11 1012.6 - 2.6 - - - - - - -
31/04:30pm 14.1 W 6 8 1012.0 - 2.6 - - - - - - -
31/04:00pm 14.4 SW 17 21 1011.9 - 2.2 - - - - - - -
31/03:30pm 14.7 SW 12 14 1011.5 - 2.2 - - - - - - -
31/03:00pm 14.6 SSW 11 14 1011.0 - 2.2 Distant precip. Mostly cloudy 25 1 1.0 8 NE
31/02:30pm 15.2 SSW 5 6 1011.4 - 2.2 - - - - - - -
31/02:00pm 15.2 SSW 8 11 1011.3 - 2.2 - - - - - - -
31/01:30pm 16.5 SSE 2 5 1011.1 - 1.6 - - - - - - -
31/01:00pm 16.3 NNW 4 8 1011.7 - 1.6 - - - - - - -
31/12:30pm 17.3 NW 5 8 1011.6 - 1.6 - - - - - - -
31/12:00pm 18.2 N 9 12 1011.4 - 1.6 Recent precip. - - - - - -
31/11:30am 15.6 N 10 12 1011.5 - 1.6 - - - - - - -
31/11:00am 15.5 NNE 13 17 1012.1 - 1.4 - - - - - - -
31/10:30am 14.6 ENE 7 8 1012.2 - 1.4 - - - - - - -
31/10:00am 14.8 W 6 9 1013.2 - 1.0 - - - - - - -
31/09:30am 14.9 SSW 11 13 1013.5 - 0.2 - - - - - - -
31/09:00am 15.3 N 12 14 1013.1 - 1.2 Rain Cloudy 5 1 1.0 8 NE
31/08:30am 15.3 N 13 15 1012.9 - 0.8 - - - - - - -
31/08:00am 15.6 NNE 15 17 1012.8 - 0.4 - - - - - - -
31/07:30am 16.0 NNE 13 16 1012.5 - 0.0 - - - - - - -
31/07:00am 16.4 NNE 13 16 1012.5 - 0.0 - - - - - - -
31/06:30am 16.6 NNE 14 17 1012.5 - 0.0 - - - - - - -
31/06:00am 16.1 NNE 15 17 1012.7 - 0.0 - - - - - - -
31/05:30am 15.4 NNE 14 17 1012.9 - 0.0 - - - - - - -
31/05:00am 15.3 NNE 13 17 1012.8 - 0.0 - - - - - - -
31/04:30am 15.1 NNE 13 15 1013.2 - 0.0 - - - - - - -
31/04:00am 15.4 NE 16 19 1013.4 - 0.0 - - - - - - -
31/03:30am 14.8 NE 17 19 1013.6 - 0.0 - - - - - - -
31/03:00am 14.8 NE 15 16 1013.7 - 0.0 Fine Cloudy 20 1 1.2 10 SE
31/02:30am 14.6 NE 12 13 1014.3 - 0.0 - - - - - - -
31/02:00am 14.6 NE 17 19 1014.8 - 0.0 - - - - - - -
31/01:30am 14.7 ENE 13 15 1015.7 - 0.0 - - - - - - -
31/01:00am 14.5 NE 12 14 1016.0 - 0.0 - - - - - - -
31/12:30am 14.9 NE 14 15 1015.9 - 0.0 - - - - - - -
31/12:00am 14.9 NE 15 20 1016.3 - 0.0 - - - - - - -
 
Date/Time
EST
Temp
°C
Wind Pressure Rain since
9am
mm
Weather Cloud Vis
km
Sea
Height
m
Swell
Dir  Spd
kts
Gust
kts
hPa Trend Height
m
Period
s
Dir
30/11:30pm 15.9 NNE 18 23 1016.7 - 0.0 - - - - - - -
30/11:00pm 15.9 NNE 21 26 1017.1 - 0.0 - - - - - - -
30/10:30pm 15.7 NNE 22 25 1017.0 - 0.0 - - - - - - -
30/10:00pm 15.4 NNE 19 21 1017.4 - 0.0 - - - - - - -
30/09:30pm 15.3 NNE 18 21 1017.7 - 0.0 - - - - - - -
30/09:00pm 15.4 NE 17 21 1018.2 - 0.0 - - - - - - -
30/08:30pm 15.6 NNE 16 19 1018.6 - 0.0 - - - - - - -
30/08:00pm 15.6 NNE 15 18 1019.0 - 0.0 - - - - - - -
30/07:30pm 15.4 N 6 11 1019.3 - 0.0 - - - - - - -
30/07:00pm 15.2 NNE 10 13 1019.2 - 0.0 - - - - - - -
30/06:30pm 15.4 N 10 13 1019.5 - 0.0 - - - - - - -
30/06:00pm 15.4 N 10 12 1019.1 - 0.0 - - - - - - -
30/05:30pm 15.7 NNE 9 11 1019.3 - 0.0 - - - - - - -
30/05:00pm 15.7 N 8 9 1019.7 - 0.0 - - - - - - -
30/04:30pm 16.4 N 8 18 1019.8 - 0.0 - - - - - - -
30/04:00pm 16.4 NNE 19 24 1019.3 - 0.0 - - - - - - -
30/03:30pm 16.8 NNE 18 22 1019.3 - 0.0 - - - - - - -
30/03:00pm 17.0 NNE 19 23 1019.5 - 0.0 Fine Cloudy 15 1 1.2 10 SE
30/02:30pm 17.2 NNE 20 27 1019.9 - 0.0 - - - - - - -
30/02:00pm 16.8 NNE 27 34 1019.6 - 0.0 - - - - - - -
30/01:30pm 16.6 NNE 27 35 1019.6 - 0.0 - - - - - - -
30/01:23pm 16.6 NNE 25 35 1019.7 - 0.0 - - - - - - -
30/01:00pm 16.3 NNE 26 32 1020.2 - 0.0 - - - - - - -
30/12:30pm 16.4 NNE 24 30 1020.5 - 0.0 - - - - - - -
30/12:00pm 16.2 NNE 19 25 1021.4 - 0.0 - - - - - - -
30/11:30am 15.7 NNE 17 22 1022.3 - 0.0 - - - - - - -
30/11:00am 15.4 NNE 16 19 1023.0 - 0.0 - - - - - - -
30/10:30am 15.6 NNE 19 21 1023.1 - 0.0 - - - - - - -
30/10:00am 16.1 N 17 23 1023.4 - 0.0 - - - - - - -
30/09:30am 15.7 NNE 17 21 1023.5 - 0.0 - - - - - - -
30/09:00am 15.7 N 15 19 1023.7 - 0.0 Fine Mostly cloudy 30 1 1.2 10 S
30/08:30am 15.3 NNE 15 18 1023.8 - 0.0 - - - - - - -
30/08:00am 14.7 NNE 13 18 1024.0 - 0.0 - - - - - - -
30/07:30am 14.4 NNE 14 17 1023.7 - 0.0 - - - - - - -
30/07:00am 14.1 NNE 14 17 1023.4 - 0.0 - - - - - - -
30/06:30am 14.0 N 13 16 1023.6 - 0.0 - - - - - - -
30/06:00am 13.5 NE 12 14 1023.4 - 0.0 - - - - - - -
30/05:30am 13.2 NE 14 16 1023.0 - 0.0 - - - - - - -
30/05:00am 13.3 NNE 11 14 1023.0 - 0.0 - - - - - - -
30/04:30am 13.4 NE 11 13 1023.3 - 0.0 - - - - - - -
30/04:00am 13.2 NE 10 11 1023.5 - 0.0 - - - - - - -
30/03:30am 12.4 NNE 6 8 1023.5 - 0.0 - - - - - - -
30/03:00am 11.5 N 3 5 1023.6 - 0.0 Fine Clear 30 <0.5 1.0 8 S
30/02:30am 11.7 N 5 6 1023.5 - 0.0 - - - - - - -
30/02:00am 12.8 NE 9 10 1023.7 - 0.0 - - - - - - -
30/01:30am 12.6 NE 8 10 1024.2 - 0.0 - - - - - - -
30/01:00am 11.4 ENE 4 5 1024.6 - 0.0 - - - - - - -
30/12:30am 11.2 CALM 0 0 1025.0 - 0.0 - - - - - - -
30/12:00am 11.4 CALM 0 0 1025.4 - 0.0 - - - - - - -
 
Date/Time
EST
Temp
°C
Wind Pressure Rain since
9am
mm
Weather Cloud Vis
km
Sea
Height
m
Swell
Dir  Spd
kts
Gust
kts
hPa Trend Height
m
Period
s
Dir
29/11:30pm 10.8 N 4 5 1025.4 - 0.0 - - - - - - -
29/11:00pm 10.8 NNE 4 5 1025.1 - 0.0 - - - - - - -
29/10:30pm 11.9 N 3 4 1025.4 - 0.0 - - - - - - -
29/10:00pm 11.3 NNW 3 5 1025.8 - 0.0 - - - - - - -
29/09:30pm 12.3 NNE 6 7 1025.8 - 0.0 - - - - - - -
29/09:00pm 12.2 NE 7 7 1025.6 - 0.0 Fine Clear 30 <0.5 1.0 8 S
29/08:30pm 12.4 NNE 8 9 1025.4 - 0.0 - - - - - - -
29/08:00pm 12.7 NNE 8 9 1025.2 - 0.0 - - - - - - -
29/07:30pm 14.0 NE 10 11 1025.0 - 0.0 - - - - - - -
29/07:00pm 13.9 NE 11 12 1024.8 - 0.0 - - - - - - -
29/06:30pm 14.2 NE 12 13 1024.7 - 0.0 - - - - - - -
29/06:00pm 14.4 NE 11 13 1024.7 - 0.0 - - - - - - -
29/05:30pm 14.6 NE 12 15 1024.3 - 0.0 - - - - - - -
29/05:00pm 14.8 NE 12 13 1024.5 - 0.0 - - - - - - -
29/04:30pm 15.0 NE 12 14 1024.2 - 0.0 - - - - - - -
29/04:00pm 15.7 NE 12 14 1024.1 - 0.0 - - - - - - -
29/03:30pm 15.6 NE 12 14 1024.2 - 0.0 - - - - - - -
29/03:00pm 15.8 NE 13 15 1024.1 - 0.0 Fine Partly cloudy 40 1 1.0 8 S
29/02:30pm 15.8 NE 13 15 1024.1 - 0.0 - - - - - - -
29/02:00pm 15.6 NE 12 13 1024.1 - 0.0 - - - - - - -
29/01:30pm 15.6 ENE 11 13 1024.2 - 0.0 - - - - - - -
29/01:00pm 15.7 ENE 10 11 1024.5 - 0.0 - - - - - - -
29/12:30pm 16.5 NE 9 11 1024.9 - 0.0 - - - - - - -
29/12:00pm 15.9 NE 9 10 1025.5 - 0.0 - - - - - - -
29/11:30am 15.8 NE 9 10 1025.8 - 0.0 - - - - - - -
29/11:00am 15.5 ENE 7 8 1026.1 - 0.0 - - - - - - -
29/10:30am 15.1 ENE 3 4 1026.4 - 0.0 - - - - - - -
29/10:00am 15.3 ESE 2 3 1026.4 - 0.0 - - - - - - -
29/09:30am 14.5 ENE 3 4 1026.4 - 0.0 - - - - - - -
29/09:00am 13.4 W 5 6 1026.4 - 0.0 Fine Mostly clear 40 <0.5 1.0 8 S
29/08:30am 12.8 W 4 6 1026.3 - 0.0 - - - - - - -
29/08:00am 12.7 NW 4 6 1026.1 - 0.0 - - - - - - -
29/07:30am 11.1 NW 7 8 1025.8 - 0.0 - - - - - - -
29/07:00am 10.3 WNW 7 8 1025.6 - 0.0 - - - - - - -
29/06:30am 10.0 WNW 8 8 1025.2 - 0.0 - - - - - - -
29/06:00am 9.6 WNW 7 8 1024.7 - 0.0 - - - - - - -
29/05:30am 9.9 WNW 7 8 1024.3 - 0.0 - - - - - - -
29/05:00am 9.8 WNW 7 8 1024.0 - 0.0 - - - - - - -
29/04:30am 10.3 WNW 7 8 1023.7 - 0.0 - - - - - - -
29/04:00am 10.2 NW 7 8 1023.5 - 0.0 - - - - - - -
29/03:30am 10.2 WNW 7 9 1023.5 - 0.0 - - - - - - -
29/03:00am 10.4 WNW 7 9 1023.3 - 0.0 Fine Partly cloudy 40 <0.5 1.0 8 S
29/02:30am 10.1 WNW 7 10 1023.2 - 0.0 - - - - - - -
29/02:00am 10.2 WNW 7 9 1023.4 - 0.0 - - - - - - -
29/01:30am 10.1 NW 8 9 1023.3 - 0.0 - - - - - - -
29/01:00am 10.1 WNW 9 12 1023.2 - 0.0 - - - - - - -
29/12:30am 10.4 W 8 11 1023.0 - 0.0 - - - - - - -
29/12:00am 11.0 WNW 7 7 1022.6 - 0.0 - - - - - - -
 
Date/Time
EST
Temp
°C
Wind Pressure Rain since
9am
mm
Weather Cloud Vis
km
Sea
Height
m
Swell
Dir  Spd
kts
Gust
kts
hPa Trend Height
m
Period
s
Dir
28/11:30pm 10.1 W 7 8 1022.6 - 0.0 - - - - - - -
28/11:00pm 10.3 W 7 8 1022.6 - 0.0 - - - - - - -
28/10:30pm 10.3 NW 6 8 1022.6 - 0.0 - - - - - - -
28/10:00pm 11.1 WNW 8 10 1022.6 - 0.0 - - - - - - -
28/09:30pm 10.7 WNW 7 8 1022.5 - 0.0 - - - - - - -
28/09:00pm 12.0 WSW 9 11 1022.4 - 0.0 Fine Clear 40 1 1.0 8 S
28/08:30pm 12.0 WSW 9 10 1022.1 - 0.0 - - - - - - -
28/08:00pm 11.9 W 7 8 1021.7 - 0.0 - - - - - - -
28/07:30pm 12.6 WSW 10 12 1021.5 - 0.0 - - - - - - -
28/07:00pm 12.6 W 10 14 1021.3 - 0.0 - - - - - - -
28/06:30pm 13.1 SW 14 17 1020.7 - 0.0 - - - - - - -

Other Formats:

Comma delimited format used in spreadsheet applications
http://www.bom.gov.au/fwo/IDV60701/IDV60701.94933.axf

JavaScript Object Notation format (JSON) in row-major order
http://www.bom.gov.au/fwo/IDV60701/IDV60701.94933.json